Johannesburg, South Africa
Current Conditions -  °F | °C
As of 8:30 PM on Thursday 23 Oct 2014 (Local Time) from FAOR Reporting Station
Rain Showers Rain Showers  
Wind Chill: 13°   Ceiling: 4800
Heat Index: 13°   Visibility: 6mi
Dew Point: 10°   Wind: 18mph
Humidity: 82%   Direction: 160°SSE
Pressure: 30.21"   Gusts: NA
Location:  26.19°S, 28.04°E
Report Text: FAOR 231830Z 16016KT 9999 -SHRA FEW045CB BKN048 13/10 Q1023 TEMPO -TSRA
Loading
Personal Weather Stations






























Interactive Weather Map
Tropical Storm Tracking
New forecast layout! Learn more

10-Day Weather Forecast

Advertisements
Track Severe Weather on mobile